Terminal Aerodrome Forecast
Issued by NWS

Home | Current Version | Previous Version | Text Only | Print | Product List | Glossary On
Versions: 1 2 3 4 5 6 7 8 9 10 11 12 13 14 15 16 17 18 19 20 21 22 23 24 25 26 27 28 29 30
454
FTUS41 KBUF 251910 AAA
TAFIAG
TAF AMD
KIAG 251910Z 2519/2618 29017G25KT P6SM VCTS BKN050CB
     FM252100 26012G20KT P6SM BKN250
     FM260100 25008KT P6SM BKN060
     FM260500 25006KT P6SM BKN045
     FM261300 24011G18KT P6SM VCSH BKN030
     FM261500 25013G19KT 6SM -SHRA OVC030=

USA.gov is the U.S. government's official web portal to all federal, state and local government web resources and services.